Time;durP1;ratioP1;P1;durP2;ratioP2;P2;SDS_P1;SDS_P2;PMS_P1;PMS_P2;Temp;Humidity;BMP_temperature;BMP_pressure;BME280_temperature;BME280_humidity;BME280_pressure;Samples;Min_cycle;Max_cycle;Signal;HPM_P1;HPM_P2
2023/08/14 00:00:53;;;;;;;3.30;3.00;;;24.00;99.90;;;;;;4926444;28;20508;-76
2023/08/14 00:03:21;;;;;;;3.47;3.27;;;24.00;99.90;;;;;;4929060;28;20506;-76
2023/08/14 00:05:48;;;;;;;3.93;2.90;;;23.90;99.90;;;;;;4927712;28;20970;-76
2023/08/14 00:08:14;;;;;;;3.00;2.70;;;23.90;99.90;;;;;;4926374;28;20831;-77
2023/08/14 00:10:41;;;;;;;3.03;2.80;;;23.90;99.90;;;;;;4927374;28;20464;-76
2023/08/14 00:13:08;;;;;;;2.90;2.70;;;23.90;99.90;;;;;;4928207;28;20460;-74
2023/08/14 00:15:35;;;;;;;3.10;2.80;;;23.90;99.90;;;;;;4926600;29;20462;-76
2023/08/14 00:18:01;;;;;;;3.67;2.77;;;23.90;99.90;;;;;;4926866;28;21008;-77
2023/08/14 00:20:30;;;;;;;2.97;2.77;;;23.90;99.90;;;;;;4926512;28;20812;-77
2023/08/14 00:22:56;;;;;;;3.50;2.33;;;23.90;99.90;;;;;;4925747;28;20974;-77
2023/08/14 00:25:23;;;;;;;3.40;3.10;;;23.90;99.90;;;;;;4924329;28;20472;-77
2023/08/14 00:27:50;;;;;;;4.20;2.70;;;23.90;99.90;;;;;;4928242;29;20519;-76
2023/08/14 00:30:17;;;;;;;4.73;3.47;;;23.90;99.90;;;;;;4926369;29;20462;-76
2023/08/14 00:32:43;;;;;;;3.80;2.30;;;23.90;99.90;;;;;;4930314;29;20496;-77
2023/08/14 00:35:10;;;;;;;3.83;2.83;;;23.80;99.90;;;;;;4929313;29;20482;-77
2023/08/14 00:37:43;;;;;;;2.60;2.40;;;23.80;99.90;;;;;;4929991;29;20975;-76
2023/08/14 00:40:12;;;;;;;4.60;2.77;;;23.80;99.90;;;;;;4930417;28;20478;-76
2023/08/14 00:42:39;;;;;;;3.80;2.37;;;23.80;99.90;;;;;;4931215;28;20989;-76
2023/08/14 00:45:07;;;;;;;2.90;2.60;;;23.80;99.90;;;;;;4929778;29;20471;-76
2023/08/14 00:47:35;;;;;;;2.90;2.70;;;23.80;99.90;;;;;;4930729;28;21029;-77
2023/08/14 00:50:03;;;;;;;3.33;3.03;;;23.80;99.90;;;;;;4927691;28;20998;-77
2023/08/14 00:52:32;;;;;;;3.40;2.73;;;23.80;99.90;;;;;;4925971;28;20455;-78
2023/08/14 00:55:01;;;;;;;4.70;3.00;;;23.80;99.90;;;;;;4925608;28;20888;-77
2023/08/14 00:57:30;;;;;;;3.60;3.10;;;23.80;99.90;;;;;;4928997;28;21424;-76
2023/08/14 00:59:57;;;;;;;2.50;2.30;;;23.80;99.90;;;;;;4927209;28;20551;-76
2023/08/14 01:02:25;;;;;;;3.37;2.80;;;23.80;99.90;;;;;;4924661;28;20462;-76
2023/08/14 01:04:52;;;;;;;2.83;2.63;;;23.80;99.90;;;;;;4929440;28;21133;-76
2023/08/14 01:07:19;;;;;;;2.87;2.67;;;23.70;99.90;;;;;;4929498;29;20843;-76
2023/08/14 01:09:46;;;;;;;2.60;2.40;;;23.70;99.90;;;;;;4928932;28;20465;-77
2023/08/14 01:12:20;;;;;;;3.00;2.30;;;23.80;99.90;;;;;;4927909;29;20468;-76
2023/08/14 01:14:50;;;;;;;4.93;2.60;;;23.70;99.90;;;;;;4928409;28;21096;-74
2023/08/14 01:17:18;;;;;;;3.27;2.97;;;23.70;99.90;;;;;;4924397;29;20467;-77
2023/08/14 01:19:49;;;;;;;2.83;2.40;;;23.70;99.90;;;;;;4928279;28;20966;-77
2023/08/14 01:22:36;;;;;;;3.53;2.83;;;23.70;99.90;;;;;;4926949;28;20462;-76
2023/08/14 01:25:30;;;;;;;3.00;2.20;;;23.70;99.90;;;;;;4926967;28;20467;-77
2023/08/14 01:27:57;;;;;;;2.80;2.60;;;23.70;99.90;;;;;;4927872;29;20471;-76
2023/08/14 01:30:24;;;;;;;3.67;3.03;;;23.70;99.90;;;;;;4924283;28;20511;-77
2023/08/14 01:32:51;;;;;;;3.13;2.77;;;23.70;99.90;;;;;;4926731;28;20470;-76
2023/08/14 01:35:19;;;;;;;3.23;2.93;;;23.60;99.90;;;;;;4927937;28;20470;-77
2023/08/14 01:37:55;;;;;;;3.00;2.70;;;23.60;99.90;;;;;;4926475;29;20467;-77
2023/08/14 01:40:29;;;;;;;2.43;2.23;;;23.70;99.90;;;;;;4930224;28;20454;-77
2023/08/14 01:43:00;;;;;;;2.80;2.57;;;23.60;99.90;;;;;;4926991;29;20479;-76
2023/08/14 01:45:30;;;;;;;3.40;3.00;;;23.60;99.90;;;;;;4923549;28;20959;-76
2023/08/14 01:48:00;;;;;;;3.03;2.10;;;23.60;99.90;;;;;;4928815;29;20844;-76
2023/08/14 01:50:29;;;;;;;3.30;2.90;;;23.60;99.90;;;;;;4927106;28;20498;-77
2023/08/14 01:52:56;;;;;;;2.90;2.60;;;23.60;99.90;;;;;;4928017;29;20463;-76
2023/08/14 01:55:24;;;;;;;2.93;2.63;;;23.60;99.90;;;;;;4925363;29;20466;-77
2023/08/14 01:57:52;;;;;;;2.87;2.67;;;23.60;99.90;;;;;;4927509;29;20466;-76
2023/08/14 02:00:19;;;;;;;2.60;2.40;;;23.60;99.90;;;;;;4924425;29;20487;-76
2023/08/14 02:02:46;;;;;;;3.33;3.03;;;23.60;99.90;;;;;;4927295;28;20469;-75
2023/08/14 02:05:13;;;;;;;3.00;2.73;;;23.60;99.90;;;;;;4925211;29;20455;-77
2023/08/14 02:07:40;;;;;;;3.30;2.50;;;23.50;99.90;;;;;;4925987;29;20510;-77
2023/08/14 02:10:08;;;;;;;3.90;2.47;;;23.60;99.90;;;;;;4924381;28;20519;-77
2023/08/14 02:12:34;;;;;;;2.83;2.57;;;23.50;99.90;;;;;;4923461;29;20472;-76
2023/08/14 02:15:02;;;;;;;3.07;2.20;;;23.50;99.90;;;;;;4923537;28;20967;-76
2023/08/14 02:17:29;;;;;;;3.07;2.20;;;23.50;99.90;;;;;;4923735;28;20463;-77
2023/08/14 02:19:56;;;;;;;2.97;2.67;;;23.50;99.90;;;;;;4924242;29;20489;-76
2023/08/14 02:22:23;;;;;;;3.90;2.80;;;23.50;99.90;;;;;;4924774;28;20938;-77
2023/08/14 02:24:50;;;;;;;3.43;2.57;;;23.50;99.90;;;;;;4927666;29;20471;-76
2023/08/14 02:27:16;;;;;;;4.07;2.27;;;23.50;99.90;;;;;;4926807;29;20466;-77
2023/08/14 02:29:43;;;;;;;2.90;2.60;;;23.50;99.90;;;;;;4928321;29;21248;-76
2023/08/14 02:32:11;;;;;;;3.10;2.50;;;23.50;99.90;;;;;;4924061;28;20470;-76
2023/08/14 02:34:45;;;;;;;2.60;2.40;;;23.50;99.90;;;;;;4928652;29;20493;-77
2023/08/14 02:37:12;;;;;;;3.00;2.50;;;23.50;99.90;;;;;;4926147;28;20494;-76
2023/08/14 02:39:39;;;;;;;2.60;2.20;;;23.50;99.90;;;;;;4923413;29;20584;-76
2023/08/14 02:42:06;;;;;;;2.60;2.40;;;23.50;99.90;;;;;;4925516;28;20832;-77
2023/08/14 02:44:33;;;;;;;3.17;2.37;;;23.50;99.90;;;;;;4926263;28;20470;-76
2023/08/14 02:47:00;;;;;;;2.70;2.37;;;23.50;99.90;;;;;;4922924;28;20461;-77
2023/08/14 02:49:28;;;;;;;2.40;2.20;;;23.40;99.90;;;;;;4929301;28;20475;-77
2023/08/14 02:51:55;;;;;;;2.43;1.80;;;23.40;99.90;;;;;;4928275;28;20470;-76
2023/08/14 02:54:22;;;;;;;3.60;2.53;;;23.50;99.90;;;;;;4930491;29;20462;-76
2023/08/14 02:56:49;;;;;;;2.60;2.13;;;23.40;99.90;;;;;;4928095;29;20939;-77
2023/08/14 02:59:16;;;;;;;2.17;1.97;;;23.40;99.90;;;;;;4928050;28;20478;-77
2023/08/14 03:01:43;;;;;;;2.13;1.90;;;23.40;99.90;;;;;;4927351;29;20471;-76
2023/08/14 03:04:10;;;;;;;3.03;2.83;;;23.40;99.90;;;;;;4929444;28;20960;-76
2023/08/14 03:06:38;;;;;;;2.27;2.07;;;23.40;99.90;;;;;;4927241;28;20536;-77
2023/08/14 03:09:05;;;;;;;2.20;2.00;;;23.40;99.90;;;;;;4929910;28;20462;-77
2023/08/14 03:11:32;;;;;;;2.60;2.40;;;23.40;99.90;;;;;;4929347;28;20473;-76
2023/08/14 03:13:59;;;;;;;4.07;2.70;;;23.40;99.90;;;;;;4928004;28;20976;-76
2023/08/14 03:16:25;;;;;;;2.37;2.07;;;23.40;99.90;;;;;;4926280;28;20461;-76
2023/08/14 03:18:52;;;;;;;2.30;2.10;;;23.40;99.90;;;;;;4928350;28;20485;-77
2023/08/14 03:21:19;;;;;;;3.10;2.80;;;23.40;99.90;;;;;;4925849;28;20840;-76
2023/08/14 03:23:48;;;;;;;2.60;2.40;;;23.40;99.90;;;;;;4930108;28;20474;-76
2023/08/14 03:26:15;;;;;;;2.50;2.17;;;23.40;99.90;;;;;;4928916;28;20477;-76
2023/08/14 03:28:41;;;;;;;2.07;1.87;;;23.40;99.90;;;;;;4932248;28;20570;-76
2023/08/14 03:31:08;;;;;;;3.17;2.40;;;23.40;99.90;;;;;;4931589;28;20506;-76
2023/08/14 03:33:35;;;;;;;2.87;2.67;;;23.30;99.90;;;;;;4931202;28;20473;-75
2023/08/14 03:36:02;;;;;;;2.33;2.13;;;23.40;99.90;;;;;;4928913;28;20990;-75
2023/08/14 03:38:29;;;;;;;2.50;2.30;;;23.40;99.90;;;;;;4930424;28;20981;-74
2023/08/14 03:40:57;;;;;;;3.27;2.63;;;23.30;99.90;;;;;;4931951;28;20878;-74
2023/08/14 03:43:24;;;;;;;2.93;2.50;;;23.30;99.90;;;;;;4933798;29;20470;-77
2023/08/14 03:45:51;;;;;;;2.87;2.50;;;23.30;99.90;;;;;;4929950;29;20479;-77
2023/08/14 03:48:18;;;;;;;3.03;1.97;;;23.30;99.90;;;;;;4927016;28;20474;-76
2023/08/14 03:50:46;;;;;;;2.50;2.30;;;23.30;99.90;;;;;;4932189;28;21069;-75
2023/08/14 03:53:13;;;;;;;2.67;2.10;;;23.30;99.90;;;;;;4930651;29;20868;-75
2023/08/14 03:55:40;;;;;;;3.13;2.90;;;23.30;99.90;;;;;;4930936;29;20466;-77
2023/08/14 03:58:08;;;;;;;2.83;2.57;;;23.30;99.90;;;;;;4923670;29;20842;-75
2023/08/14 04:00:35;;;;;;;2.23;1.90;;;23.30;99.90;;;;;;4928022;28;20493;-74
2023/08/14 04:03:02;;;;;;;2.67;2.20;;;23.30;99.90;;;;;;4927937;28;20473;-76
2023/08/14 04:05:29;;;;;;;3.13;2.83;;;23.30;99.90;;;;;;4929429;29;20658;-76
2023/08/14 04:07:56;;;;;;;2.70;2.30;;;23.30;99.90;;;;;;4925881;28;20530;-76
2023/08/14 04:10:25;;;;;;;3.73;2.50;;;23.30;99.90;;;;;;4925054;28;20464;-76
2023/08/14 04:12:51;;;;;;;2.77;2.13;;;23.30;99.90;;;;;;4926712;29;20470;-76
2023/08/14 04:15:20;;;;;;;2.47;2.27;;;23.30;99.90;;;;;;4928941;29;20462;-76
2023/08/14 04:17:47;;;;;;;3.80;2.77;;;23.30;99.90;;;;;;4926263;28;20474;-75
2023/08/14 04:20:14;;;;;;;2.30;1.77;;;23.30;99.90;;;;;;4924419;28;20493;-76
2023/08/14 04:22:41;;;;;;;2.97;2.53;;;23.30;99.90;;;;;;4927603;28;20455;-75
2023/08/14 04:25:08;;;;;;;2.30;2.10;;;23.30;99.90;;;;;;4927043;28;20472;-75
2023/08/14 04:27:36;;;;;;;2.53;2.17;;;23.20;99.90;;;;;;4934063;28;21163;-75
2023/08/14 04:30:03;;;;;;;2.50;2.23;;;23.30;99.90;;;;;;4929486;28;20521;-76
2023/08/14 04:32:32;;;;;;;3.40;2.43;;;23.20;99.90;;;;;;4926741;28;20474;-77
2023/08/14 04:34:58;;;;;;;2.43;2.13;;;23.20;99.90;;;;;;4926414;29;20467;-77
2023/08/14 04:37:25;;;;;;;2.40;2.20;;;23.20;99.90;;;;;;4926411;28;20475;-77
2023/08/14 04:39:52;;;;;;;2.33;2.13;;;23.20;99.90;;;;;;4926168;28;21368;-76
2023/08/14 04:42:19;;;;;;;2.97;2.07;;;23.20;99.90;;;;;;4926618;28;21167;-76
2023/08/14 04:44:46;;;;;;;3.20;2.90;;;23.20;99.90;;;;;;4925316;28;21085;-76
2023/08/14 04:47:13;;;;;;;2.30;2.10;;;23.20;99.90;;;;;;4923444;28;20510;-75
2023/08/14 04:49:41;;;;;;;2.80;1.53;;;23.20;99.90;;;;;;4925484;29;20463;-77
2023/08/14 04:52:08;;;;;;;3.03;2.27;;;23.20;99.90;;;;;;4924817;28;20462;-77
2023/08/14 04:54:34;;;;;;;2.90;2.30;;;23.20;99.90;;;;;;4926141;28;20467;-77
2023/08/14 04:57:01;;;;;;;3.20;2.57;;;23.20;99.90;;;;;;4923685;28;20864;-77
2023/08/14 04:59:28;;;;;;;2.07;1.97;;;23.20;99.90;;;;;;4932750;28;20491;-78
2023/08/14 05:01:55;;;;;;;4.50;3.10;;;23.20;99.90;;;;;;4931044;29;20486;-77
2023/08/14 05:04:22;;;;;;;2.33;2.13;;;23.20;99.90;;;;;;4929376;28;20465;-76
2023/08/14 05:06:52;;;;;;;3.10;2.70;;;23.20;99.90;;;;;;4931705;28;20473;-77
2023/08/14 05:09:18;;;;;;;3.73;3.00;;;23.20;99.90;;;;;;4925018;28;20459;-76
2023/08/14 05:11:45;;;;;;;1.70;1.60;;;23.20;99.90;;;;;;4921376;28;20482;-77
2023/08/14 05:14:12;;;;;;;3.70;2.60;;;23.20;99.90;;;;;;4924040;28;20912;-75
2023/08/14 05:16:38;;;;;;;1.80;1.70;;;23.20;99.90;;;;;;4927194;28;20458;-76
2023/08/14 05:19:05;;;;;;;2.87;2.23;;;23.20;99.90;;;;;;4925203;28;21013;-78
2023/08/14 05:21:32;;;;;;;2.30;2.10;;;23.20;99.90;;;;;;4926162;28;20475;-77
2023/08/14 05:24:00;;;;;;;2.37;2.17;;;23.20;99.90;;;;;;4932385;28;20476;-78
2023/08/14 05:26:27;;;;;;;3.10;2.10;;;23.20;99.90;;;;;;4932663;28;20463;-77
2023/08/14 05:28:54;;;;;;;2.20;1.77;;;23.10;99.90;;;;;;4932945;28;20474;-77
2023/08/14 05:31:21;;;;;;;2.20;2.00;;;23.10;99.90;;;;;;4925749;28;20474;-76
2023/08/14 05:33:47;;;;;;;2.23;2.03;;;23.20;99.90;;;;;;4924010;28;20466;-77
2023/08/14 05:36:14;;;;;;;2.40;2.20;;;23.10;99.90;;;;;;4928252;28;21177;-76
2023/08/14 05:38:41;;;;;;;2.07;1.73;;;23.10;99.90;;;;;;4929972;28;20468;-76
2023/08/14 05:41:09;;;;;;;2.50;2.30;;;23.10;99.90;;;;;;4932128;28;20488;-76
2023/08/14 05:43:36;;;;;;;2.53;2.30;;;23.10;99.90;;;;;;4928824;28;20474;-77
2023/08/14 05:46:03;;;;;;;2.70;2.30;;;23.10;99.90;;;;;;4926351;28;20742;-74
2023/08/14 05:48:29;;;;;;;2.57;2.37;;;23.10;99.90;;;;;;4930354;28;20966;-78
2023/08/14 05:50:56;;;;;;;2.37;2.07;;;23.20;99.90;;;;;;4927740;28;20463;-76
2023/08/14 05:53:23;;;;;;;2.30;2.10;;;23.10;99.90;;;;;;4929252;28;20461;-74
2023/08/14 05:55:50;;;;;;;2.93;2.60;;;23.10;99.90;;;;;;4926555;28;20495;-76
2023/08/14 05:58:18;;;;;;;2.00;1.83;;;23.10;99.90;;;;;;4928406;28;20467;-77
2023/08/14 06:00:45;;;;;;;3.77;2.20;;;23.10;99.90;;;;;;4926364;28;20497;-78
2023/08/14 06:03:12;;;;;;;3.03;2.47;;;23.10;99.90;;;;;;4924767;28;20473;-77
2023/08/14 06:05:38;;;;;;;2.87;2.30;;;23.10;99.90;;;;;;4930379;29;20498;-77
2023/08/14 06:08:06;;;;;;;2.73;2.30;;;23.10;99.90;;;;;;4929277;29;20474;-77
2023/08/14 06:10:33;;;;;;;2.63;2.43;;;23.10;99.90;;;;;;4928764;29;20475;-77
2023/08/14 06:13:00;;;;;;;3.47;2.53;;;23.10;99.90;;;;;;4927752;28;20840;-76
2023/08/14 06:15:28;;;;;;;3.17;2.70;;;23.20;99.90;;;;;;4922266;29;20975;-75
2023/08/14 06:17:55;;;;;;;4.13;2.83;;;23.10;99.90;;;;;;4927710;28;20475;-75
2023/08/14 06:20:22;;;;;;;2.40;2.20;;;23.20;99.90;;;;;;4929546;29;20482;-76
2023/08/14 06:22:49;;;;;;;3.20;2.33;;;23.10;99.90;;;;;;4927882;29;20465;-75
2023/08/14 06:25:18;;;;;;;4.17;2.77;;;23.20;99.90;;;;;;4927413;28;20538;-76
2023/08/14 06:27:44;;;;;;;2.03;1.83;;;23.10;99.90;;;;;;4929610;29;20964;-75
2023/08/14 06:30:12;;;;;;;3.67;2.57;;;23.20;99.90;;;;;;4924461;28;21002;-75
2023/08/14 06:32:40;;;;;;;3.47;2.40;;;23.20;99.90;;;;;;4927406;28;20462;-76
2023/08/14 06:35:07;;;;;;;2.90;2.50;;;23.20;99.90;;;;;;4929841;28;20461;-76
2023/08/14 06:37:34;;;;;;;4.17;2.53;;;23.20;99.90;;;;;;4929423;28;20513;-75
2023/08/14 06:40:01;;;;;;;3.93;2.70;;;23.20;99.90;;;;;;4927650;28;20582;-75
2023/08/14 06:42:28;;;;;;;2.80;2.10;;;23.20;99.90;;;;;;4930219;28;20959;-76
2023/08/14 06:44:55;;;;;;;4.27;2.70;;;23.20;99.90;;;;;;4925282;28;20471;-76
2023/08/14 06:47:21;;;;;;;3.77;2.43;;;23.20;99.90;;;;;;4930797;28;20468;-76
2023/08/14 06:49:49;;;;;;;3.27;2.60;;;23.20;99.90;;;;;;4927697;28;20996;-76
2023/08/14 06:52:17;;;;;;;4.70;2.70;;;23.20;99.90;;;;;;4927290;28;20469;-77
2023/08/14 06:54:44;;;;;;;4.93;2.70;;;23.20;99.90;;;;;;4926764;28;21041;-77
2023/08/14 06:57:11;;;;;;;3.93;2.20;;;23.20;99.90;;;;;;4927165;28;20484;-76
2023/08/14 06:59:37;;;;;;;3.70;2.60;;;23.20;99.90;;;;;;4927322;28;20503;-76
2023/08/14 07:02:05;;;;;;;4.00;3.00;;;23.20;99.90;;;;;;4922393;28;20473;-75
2023/08/14 07:04:31;;;;;;;4.57;2.67;;;23.20;99.90;;;;;;4928112;29;20548;-76
2023/08/14 07:06:59;;;;;;;6.57;2.90;;;23.20;99.90;;;;;;4925434;29;20467;-75
2023/08/14 07:09:26;;;;;;;5.53;3.17;;;23.20;99.90;;;;;;4928828;29;20773;-75
2023/08/14 07:11:53;;;;;;;3.13;2.80;;;23.20;99.90;;;;;;4920655;28;20463;-75
2023/08/14 07:14:19;;;;;;;5.40;3.40;;;23.20;99.90;;;;;;4922487;29;20990;-75
2023/08/14 07:16:46;;;;;;;6.60;2.97;;;23.20;99.90;;;;;;4916978;28;20466;-75
2023/08/14 07:19:13;;;;;;;4.57;3.00;;;23.20;99.90;;;;;;4922924;28;20468;-77
2023/08/14 07:21:40;;;;;;;5.70;3.40;;;23.20;99.90;;;;;;4926610;29;20491;-77
2023/08/14 07:24:08;;;;;;;7.90;3.93;;;23.20;99.90;;;;;;4921482;28;20469;-77
2023/08/14 07:26:35;;;;;;;8.67;3.00;;;23.20;99.90;;;;;;4928993;29;20451;-80
2023/08/14 07:29:02;;;;;;;4.87;3.20;;;23.20;99.90;;;;;;4925267;29;20459;-77
2023/08/14 07:31:28;;;;;;;4.40;2.90;;;23.20;99.90;;;;;;4930220;28;20986;-77
2023/08/14 07:33:55;;;;;;;2.80;2.60;;;23.20;99.90;;;;;;4930765;29;20468;-76
2023/08/14 07:36:22;;;;;;;3.73;2.73;;;23.20;99.90;;;;;;4930127;28;20511;-76
2023/08/14 07:38:49;;;;;;;7.37;3.50;;;23.20;99.90;;;;;;4930734;29;20475;-76
2023/08/14 07:41:18;;;;;;;7.43;3.50;;;23.20;99.90;;;;;;4930192;28;20494;-77
2023/08/14 07:43:45;;;;;;;6.73;3.83;;;23.20;99.90;;;;;;4930386;28;21212;-74
2023/08/14 07:46:12;;;;;;;13.90;3.77;;;23.20;99.90;;;;;;4927259;28;20812;-74
2023/08/14 07:48:38;;;;;;;7.67;3.10;;;23.20;99.90;;;;;;4928972;28;20467;-84
2023/08/14 07:51:05;;;;;;;8.33;3.70;;;23.20;99.90;;;;;;4932194;28;20835;-86
2023/08/14 07:53:33;;;;;;;6.80;3.70;;;23.20;99.90;;;;;;4930668;29;20472;-84
2023/08/14 07:55:59;;;;;;;9.33;2.87;;;23.20;99.90;;;;;;4930778;29;20464;-84
2023/08/14 07:58:27;;;;;;;6.33;2.90;;;23.20;99.90;;;;;;4932140;28;20948;-82
2023/08/14 08:00:55;;;;;;;5.77;3.00;;;23.20;99.90;;;;;;4931130;29;21078;-84
2023/08/14 08:03:22;;;;;;;6.73;2.63;;;23.20;99.90;;;;;;4930422;28;20486;-83
2023/08/14 08:05:49;;;;;;;5.30;3.07;;;23.20;99.90;;;;;;4933145;29;20497;-82
2023/08/14 08:08:16;;;;;;;6.97;3.00;;;23.20;99.90;;;;;;4928797;28;20830;-83
2023/08/14 08:10:42;;;;;;;5.00;2.97;;;23.20;99.90;;;;;;4914056;29;20459;-85
2023/08/14 08:13:09;;;;;;;8.37;4.20;;;23.20;99.90;;;;;;4926612;28;20951;-82
2023/08/14 08:15:37;;;;;;;5.90;3.80;;;23.20;99.90;;;;;;4917383;28;20493;-82
2023/08/14 08:18:04;;;;;;;7.80;3.17;;;23.20;99.90;;;;;;4928891;28;20927;-84
2023/08/14 08:20:31;;;;;;;8.90;3.13;;;23.20;99.90;;;;;;4931977;28;20600;-85
2023/08/14 08:22:58;;;;;;;6.17;3.50;;;23.20;99.90;;;;;;4928929;28;20471;-84
2023/08/14 08:25:24;;;;;;;4.23;3.43;;;23.20;99.90;;;;;;4932670;28;20470;-84
2023/08/14 08:27:51;;;;;;;8.20;3.57;;;23.20;99.90;;;;;;4926425;28;20452;-84
2023/08/14 08:30:18;;;;;;;12.30;3.67;;;23.20;99.90;;;;;;4926030;28;20843;-84
2023/08/14 08:32:46;;;;;;;6.10;4.10;;;23.20;99.90;;;;;;4928421;28;20519;-82
2023/08/14 08:35:14;;;;;;;18.27;4.50;;;23.20;99.90;;;;;;4927398;28;21134;-82
2023/08/14 08:37:41;;;;;;;5.87;4.40;;;23.20;99.90;;;;;;4927017;28;20824;-83
2023/08/14 08:40:09;;;;;;;16.60;3.70;;;23.20;99.90;;;;;;4926561;28;20468;-84
2023/08/14 08:42:36;;;;;;;6.50;3.20;;;23.20;99.90;;;;;;4908067;28;20455;-83
2023/08/14 08:45:05;;;;;;;8.10;3.13;;;23.20;99.90;;;;;;4925791;28;20892;-84
2023/08/14 08:47:36;;;;;;;10.77;4.33;;;23.20;99.90;;;;;;4926379;29;21054;-83
2023/08/14 08:50:05;;;;;;;7.93;4.20;;;23.20;99.90;;;;;;4926091;29;21082;-83
2023/08/14 08:52:32;;;;;;;10.60;3.67;;;23.20;99.90;;;;;;4925632;28;20459;-83
2023/08/14 08:55:02;;;;;;;7.77;3.90;;;23.20;99.90;;;;;;4924301;28;20559;-84
2023/08/14 08:57:29;;;;;;;8.73;3.30;;;23.20;99.90;;;;;;4928770;29;20542;-84
2023/08/14 08:59:59;;;;;;;5.70;3.93;;;23.20;99.90;;;;;;4928618;29;20443;-83
2023/08/14 09:02:25;;;;;;;13.47;4.03;;;23.20;99.90;;;;;;4926601;29;20485;-83
2023/08/14 09:04:52;;;;;;;6.63;4.23;;;23.20;99.90;;;;;;4927865;29;20450;-83
2023/08/14 09:07:20;;;;;;;3.93;3.40;;;23.20;99.90;;;;;;4926787;29;21070;-83
2023/08/14 09:09:48;;;;;;;3.20;2.63;;;23.20;99.90;;;;;;4928833;29;20491;-82
2023/08/14 09:12:15;;;;;;;5.07;3.70;;;23.20;99.90;;;;;;4928982;29;20551;-84
2023/08/14 09:14:43;;;;;;;8.43;3.40;;;23.20;99.90;;;;;;4929875;28;21038;-84
2023/08/14 09:17:11;;;;;;;10.10;3.30;;;23.20;99.90;;;;;;4927727;28;20467;-84
2023/08/14 09:19:40;;;;;;;9.60;3.50;;;23.20;99.90;;;;;;4929366;29;20465;-84
2023/08/14 09:22:07;;;;;;;7.80;2.87;;;23.20;99.90;;;;;;4924785;28;20542;-84
2023/08/14 09:24:37;;;;;;;6.13;2.63;;;23.20;99.90;;;;;;4924241;28;20523;-84
2023/08/14 09:27:04;;;;;;;7.80;3.20;;;23.30;99.90;;;;;;4924875;29;20458;-84
2023/08/14 09:29:35;;;;;;;6.87;3.90;;;23.20;99.90;;;;;;4926077;28;20840;-84
2023/08/14 09:32:02;;;;;;;5.93;3.00;;;23.20;99.90;;;;;;4928434;29;20464;-83
2023/08/14 09:34:30;;;;;;;5.80;4.00;;;23.20;99.90;;;;;;4928769;29;20483;-84
2023/08/14 09:36:59;;;;;;;5.70;2.90;;;23.20;99.90;;;;;;4925029;28;20526;-83
2023/08/14 09:39:26;;;;;;;5.17;2.50;;;23.20;99.90;;;;;;4928912;29;20510;-82
2023/08/14 09:41:54;;;;;;;7.90;2.87;;;23.30;99.90;;;;;;4929842;28;20503;-86
2023/08/14 09:44:21;;;;;;;6.63;2.57;;;23.20;99.90;;;;;;4932018;29;20470;-84
2023/08/14 09:46:54;;;;;;;3.70;2.70;;;23.30;99.90;;;;;;4922029;28;20930;-91
2023/08/14 09:49:21;;;;;;;6.43;3.20;;;23.30;99.90;;;;;;4916511;28;20465;-91
2023/08/14 09:51:55;;;;;;;4.03;2.30;;;23.30;99.90;;;;;;4916149;28;20465;-90
2023/08/14 09:54:30;;;;;;;6.63;3.00;;;23.30;99.90;;;;;;4925606;28;21368;-88
2023/08/14 09:57:00;;;;;;;5.60;2.87;;;23.30;99.90;;;;;;4932514;28;20563;-85
2023/08/14 09:59:27;;;;;;;5.33;2.83;;;23.30;99.90;;;;;;4933231;28;20439;-86
2023/08/14 10:01:55;;;;;;;5.60;3.00;;;23.30;99.90;;;;;;4925482;28;20493;-85
2023/08/14 10:04:23;;;;;;;5.10;3.13;;;23.30;99.90;;;;;;4926349;28;20458;-86
2023/08/14 10:06:51;;;;;;;5.90;2.90;;;23.30;99.90;;;;;;4924298;28;20472;-85
2023/08/14 10:09:22;;;;;;;8.37;2.93;;;23.40;99.90;;;;;;4923704;28;20461;-84
2023/08/14 10:11:50;;;;;;;7.00;2.37;;;23.40;99.90;;;;;;4925471;28;20465;-85
2023/08/14 10:14:23;;;;;;;3.93;2.90;;;23.40;99.90;;;;;;4926844;28;20472;-88
2023/08/14 10:16:52;;;;;;;3.97;2.53;;;23.40;99.90;;;;;;4926870;28;20475;-87
2023/08/14 10:19:24;;;;;;;8.47;2.70;;;23.40;99.90;;;;;;4927727;28;20881;-86
2023/08/14 10:21:53;;;;;;;7.83;2.77;;;23.40;99.90;;;;;;4929453;28;20490;-86
2023/08/14 10:24:22;;;;;;;6.97;2.80;;;23.40;99.90;;;;;;4928774;28;20926;-87
2023/08/14 10:26:49;;;;;;;4.77;2.10;;;23.50;99.90;;;;;;4929100;28;20473;-87
2023/08/14 10:29:18;;;;;;;2.87;2.30;;;23.50;99.90;;;;;;4927258;28;20460;-88
2023/08/14 10:31:46;;;;;;;6.73;2.60;;;23.50;99.90;;;;;;4929718;28;21077;-87
2023/08/14 10:34:15;;;;;;;4.73;2.50;;;23.50;99.90;;;;;;4927568;28;20458;-88
2023/08/14 10:36:41;;;;;;;8.07;2.50;;;23.50;99.90;;;;;;4927142;28;20958;-90
2023/08/14 10:39:09;;;;;;;6.43;3.23;;;23.60;99.90;;;;;;4928812;28;20472;-88
2023/08/14 10:41:37;;;;;;;4.80;2.37;;;23.60;99.90;;;;;;4931420;28;20891;-90
2023/08/14 10:44:08;;;;;;;7.00;2.80;;;23.60;99.90;;;;;;4930894;28;20931;-90
2023/08/14 10:46:42;;;;;;;6.83;3.70;;;23.60;99.90;;;;;;4930255;28;20951;-90
2023/08/14 10:49:12;;;;;;;6.23;2.47;;;23.70;99.90;;;;;;4928097;28;20472;-89
2023/08/14 10:51:41;;;;;;;5.43;2.83;;;23.70;99.90;;;;;;4928780;28;20466;-87
2023/08/14 10:54:12;;;;;;;5.40;3.27;;;23.70;99.90;;;;;;4930330;28;20820;-89
2023/08/14 10:56:47;;;;;;;4.27;2.50;;;23.70;99.90;;;;;;4933271;28;20473;-90
2023/08/14 10:59:22;;;;;;;4.73;2.40;;;23.80;99.90;;;;;;4931497;28;20468;-90
2023/08/14 11:02:05;;;;;;;6.77;2.00;;;23.80;99.90;;;;;;4930608;28;20500;-90
2023/08/14 11:04:35;;;;;;;4.40;2.07;;;23.80;99.90;;;;;;4932453;28;20509;-89
2023/08/14 11:07:05;;;;;;;6.87;3.00;;;23.80;99.90;;;;;;4933858;28;20472;-89
2023/08/14 11:09:33;;;;;;;13.00;2.57;;;23.80;99.90;;;;;;4936234;28;20532;-89
2023/08/14 11:12:05;;;;;;;4.03;2.57;;;23.90;99.90;;;;;;4935028;28;20990;-90
2023/08/14 11:14:32;;;;;;;5.23;2.63;;;23.90;99.90;;;;;;4935054;28;21261;-86
2023/08/14 11:17:00;;;;;;;4.23;2.37;;;23.90;99.90;;;;;;4922248;28;20842;-87
2023/08/14 11:19:27;;;;;;;10.77;2.77;;;23.90;99.90;;;;;;4933549;28;20493;-87
2023/08/14 11:21:54;;;;;;;4.90;2.77;;;23.90;99.90;;;;;;4928547;28;20485;-85
2023/08/14 11:24:20;;;;;;;4.93;2.90;;;23.90;99.90;;;;;;4933367;28;20478;-87
2023/08/14 11:26:47;;;;;;;4.43;2.37;;;23.90;99.90;;;;;;4935376;28;20488;-88
2023/08/14 11:29:14;;;;;;;5.50;3.20;;;23.90;99.90;;;;;;4936127;28;20473;-89
2023/08/14 11:31:44;;;;;;;7.50;3.13;;;24.00;99.90;;;;;;4929906;28;20815;-81
2023/08/14 11:34:12;;;;;;;6.23;2.33;;;23.90;99.90;;;;;;4930053;28;20870;-80
2023/08/14 11:36:41;;;;;;;5.73;2.80;;;24.00;99.90;;;;;;4930391;28;20492;-80
2023/08/14 11:39:08;;;;;;;5.50;2.53;;;24.00;99.90;;;;;;4932921;28;20560;-83
2023/08/14 11:41:35;;;;;;;4.53;2.33;;;24.00;99.90;;;;;;4928145;28;20855;-82
2023/08/14 11:44:03;;;;;;;3.87;2.37;;;24.00;99.90;;;;;;4927288;28;20474;-83
2023/08/14 11:46:30;;;;;;;5.33;2.40;;;24.00;99.90;;;;;;4929691;28;20453;-82
2023/08/14 11:48:57;;;;;;;4.90;2.67;;;24.00;99.90;;;;;;4931000;28;20463;-83
2023/08/14 11:51:26;;;;;;;3.80;2.40;;;24.00;99.90;;;;;;4929482;28;20963;-82
2023/08/14 11:53:53;;;;;;;9.53;3.03;;;24.00;99.90;;;;;;4932996;28;20473;-83
2023/08/14 11:56:20;;;;;;;4.43;2.90;;;24.00;99.90;;;;;;4927848;28;20473;-81
2023/08/14 11:58:47;;;;;;;7.77;2.80;;;24.00;99.90;;;;;;4928073;29;20462;-82
2023/08/14 12:01:14;;;;;;;4.70;3.17;;;24.10;99.90;;;;;;4926108;28;20474;-82
2023/08/14 12:03:41;;;;;;;6.17;2.47;;;24.00;99.90;;;;;;4929777;29;20973;-81
2023/08/14 12:06:08;;;;;;;8.90;3.47;;;24.00;99.90;;;;;;4923271;28;20473;-82
2023/08/14 12:08:38;;;;;;;4.60;2.60;;;24.00;99.90;;;;;;4927635;28;20473;-82
2023/08/14 12:11:05;;;;;;;7.73;2.30;;;24.00;99.90;;;;;;4927071;29;20473;-82
2023/08/14 12:13:33;;;;;;;7.33;2.87;;;24.10;99.90;;;;;;4925792;28;20469;-82
2023/08/14 12:16:06;;;;;;;4.60;2.60;;;24.00;99.90;;;;;;4923579;28;20540;-82
2023/08/14 12:18:33;;;;;;;3.93;2.77;;;24.00;99.90;;;;;;4928340;28;20445;-82
2023/08/14 12:20:59;;;;;;;7.20;3.87;;;24.00;99.90;;;;;;4926683;28;20461;-82
2023/08/14 12:23:30;;;;;;;3.80;2.30;;;24.10;99.90;;;;;;4926598;28;20494;-82
2023/08/14 12:25:58;;;;;;;8.60;2.70;;;24.00;99.90;;;;;;4929019;29;20468;-83
2023/08/14 12:28:25;;;;;;;2.80;2.40;;;24.00;99.90;;;;;;4928592;29;20465;-83
2023/08/14 12:30:51;;;;;;;4.90;2.67;;;24.00;99.90;;;;;;4928558;29;20477;-83
2023/08/14 12:33:18;;;;;;;5.93;2.23;;;24.00;99.90;;;;;;4927870;29;20555;-83
2023/08/14 12:35:45;;;;;;;5.40;3.20;;;24.00;99.90;;;;;;4927931;29;20474;-83
2023/08/14 12:38:12;;;;;;;6.10;2.80;;;24.10;99.90;;;;;;4928412;28;20473;-83
2023/08/14 12:40:40;;;;;;;4.27;2.60;;;24.10;99.90;;;;;;4924531;28;20462;-82
2023/08/14 12:43:08;;;;;;;4.17;2.70;;;24.00;99.90;;;;;;4925363;28;21009;-81
2023/08/14 12:45:35;;;;;;;6.47;3.20;;;24.00;99.90;;;;;;4923401;28;21086;-82
2023/08/14 12:48:01;;;;;;;10.77;3.13;;;24.00;99.90;;;;;;4923620;28;20476;-82